createdAt,value
2017-04-14T00:00:24.320Z,9.61
2017-04-14T00:01:22.165Z,11.57
2017-04-14T00:02:20.142Z,14.60
2017-04-14T00:03:17.947Z,12.64
2017-04-14T00:04:15.905Z,7.82
2017-04-14T00:05:14.619Z,10.56
2017-04-14T00:06:12.436Z,11.92
2017-04-14T00:07:10.340Z,10.54
2017-04-14T00:08:08.197Z,11.46
2017-04-14T00:09:06.104Z,12.38
2017-04-14T00:10:04.116Z,9.78
2017-04-14T00:11:01.964Z,12.51
2017-04-14T00:11:59.861Z,8.53
2017-04-14T00:12:57.680Z,11.64
2017-04-14T00:13:55.517Z,9.90
2017-04-14T00:14:53.372Z,19.29
2017-04-14T00:15:51.225Z,11.53
2017-04-14T00:16:49.105Z,13.61
2017-04-14T00:17:47.009Z,13.95
2017-04-14T00:18:44.816Z,9.97
2017-04-14T00:19:42.623Z,13.70
2017-04-14T00:20:40.424Z,14.27
2017-04-14T00:21:38.216Z,12.26
2017-04-14T00:22:36.438Z,11.15
2017-04-14T00:23:34.325Z,10.54
2017-04-14T00:24:32.161Z,10.63
2017-04-14T00:25:30.068Z,8.88
2017-04-14T00:26:27.888Z,13.12
2017-04-14T00:27:25.828Z,11.93
2017-04-14T00:28:23.687Z,12.47
2017-04-14T00:29:21.537Z,11.60
2017-04-14T00:30:19.439Z,9.55
2017-04-14T00:31:17.320Z,14.32
2017-04-14T00:32:15.389Z,12.99
2017-04-14T00:33:13.308Z,10.93
2017-04-14T00:34:11.236Z,11.33
2017-04-14T00:35:09.420Z,11.18
2017-04-14T00:36:07.307Z,14.52
2017-04-14T00:37:05.268Z,8.72
2017-04-14T00:38:03.384Z,10.23
2017-04-14T00:39:01.513Z,13.13
2017-04-14T00:39:59.461Z,10.25
2017-04-14T00:40:57.457Z,14.71
2017-04-14T00:41:55.420Z,13.68
2017-04-14T00:42:53.234Z,9.68
2017-04-14T00:43:51.276Z,11.12
2017-04-14T00:44:49.087Z,12.87
2017-04-14T00:45:46.995Z,9.68
2017-04-14T00:46:44.841Z,12.68
2017-04-14T00:47:42.937Z,15.25
2017-04-14T00:48:40.759Z,11.58
2017-04-14T00:49:38.608Z,12.07
2017-04-14T00:50:36.421Z,11.92
2017-04-14T00:51:34.209Z,13.08
2017-04-14T00:52:32.142Z,14.10
2017-04-14T00:53:30.036Z,15.26
2017-04-14T00:54:27.825Z,15.04
2017-04-14T00:55:25.637Z,12.27
2017-04-14T00:56:23.453Z,11.65
2017-04-14T00:57:21.412Z,14.37
2017-04-14T00:58:19.250Z,12.50
2017-04-14T00:59:17.146Z,13.38
2017-04-14T01:00:14.988Z,11.71
2017-04-14T01:01:12.960Z,16.87
2017-04-14T01:02:10.972Z,9.24
2017-04-14T01:03:08.780Z,10.17
2017-04-14T01:04:06.616Z,12.23
2017-04-14T01:05:04.465Z,10.33
2017-04-14T01:06:02.301Z,11.77
2017-04-14T01:07:00.169Z,11.21
2017-04-14T01:07:58.003Z,18.84
2017-04-14T01:08:55.939Z,12.37
2017-04-14T01:09:54.313Z,14.79
2017-04-14T01:10:52.247Z,9.29
2017-04-14T01:11:50.173Z,12.03
2017-04-14T01:12:48.213Z,14.59
2017-04-14T01:13:46.052Z,17.67
2017-04-14T01:14:43.899Z,16.06
2017-04-14T01:15:41.748Z,11.39
2017-04-14T01:16:39.606Z,12.69
2017-04-14T01:17:37.698Z,11.93
2017-04-14T01:18:35.547Z,15.54
2017-04-14T01:19:33.885Z,14.67
2017-04-14T01:20:31.873Z,15.01
2017-04-14T01:21:29.810Z,9.79
2017-04-14T01:22:27.676Z,15.53
2017-04-14T01:23:25.593Z,10.02
2017-04-14T01:24:23.416Z,12.29
2017-04-14T01:25:21.260Z,13.03
2017-04-14T01:26:19.095Z,13.21
2017-04-14T01:27:17.133Z,17.56
2017-04-14T01:28:14.935Z,12.20
2017-04-14T01:29:12.840Z,12.16
2017-04-14T01:30:10.711Z,19.11
2017-04-14T01:31:08.526Z,19.39
2017-04-14T01:32:06.507Z,17.90
2017-04-14T01:33:04.344Z,18.54
2017-04-14T01:34:02.206Z,10.51
2017-04-14T01:35:00.110Z,16.93
2017-04-14T01:35:58.104Z,10.03
2017-04-14T01:36:55.940Z,14.56
2017-04-14T01:37:53.768Z,14.80
2017-04-14T01:38:51.645Z,18.92
2017-04-14T01:39:49.607Z,12.23
2017-04-14T01:40:47.476Z,13.72
2017-04-14T01:41:45.318Z,11.67
2017-04-14T01:42:43.246Z,11.74
2017-04-14T01:43:41.112Z,11.33
2017-04-14T01:44:38.969Z,14.51
2017-04-14T01:45:36.862Z,14.47
2017-04-14T01:46:34.684Z,16.33
2017-04-14T01:47:32.696Z,12.68
2017-04-14T01:48:30.568Z,13.55
2017-04-14T01:49:28.435Z,17.24
2017-04-14T01:50:26.275Z,16.43
2017-04-14T01:51:24.132Z,15.24
2017-04-14T01:52:22.086Z,15.13
2017-04-14T01:53:19.927Z,17.77
2017-04-14T01:54:17.823Z,17.06
2017-04-14T01:55:15.625Z,16.52
2017-04-14T01:56:13.658Z,15.45
2017-04-14T01:57:11.561Z,16.79
2017-04-14T01:58:09.410Z,12.53
2017-04-14T01:59:07.404Z,16.08
2017-04-14T02:00:05.279Z,17.19
2017-04-14T02:01:03.266Z,17.57
2017-04-14T02:02:01.135Z,17.28
2017-04-14T02:02:58.954Z,14.67
2017-04-14T02:03:56.820Z,20.78
2017-04-14T02:04:54.660Z,15.67
2017-04-14T02:05:52.615Z,13.18
2017-04-14T02:06:50.486Z,20.00
2017-04-14T02:07:48.405Z,16.08
2017-04-14T02:08:46.270Z,14.16
2017-04-14T02:09:44.151Z,16.33
2017-04-14T02:10:42.105Z,20.05
2017-04-14T02:11:39.984Z,12.67
2017-04-14T02:12:37.828Z,13.59
2017-04-14T02:13:35.660Z,16.77
2017-04-14T02:14:33.553Z,12.43
2017-04-14T02:15:31.399Z,19.45
2017-04-14T02:16:29.337Z,13.30
2017-04-14T02:17:27.189Z,13.40
2017-04-14T02:18:25.052Z,16.16
2017-04-14T02:19:22.888Z,13.52
2017-04-14T02:20:20.711Z,20.86
2017-04-14T02:21:18.654Z,14.37
2017-04-14T02:22:16.481Z,17.87
2017-04-14T02:23:14.432Z,17.55
2017-04-14T02:24:12.356Z,13.82
2017-04-14T02:25:10.195Z,18.67
2017-04-14T02:26:08.289Z,14.93
2017-04-14T02:27:06.116Z,17.08
2017-04-14T02:28:03.976Z,17.08
2017-04-14T02:29:01.819Z,18.92
2017-04-14T02:29:59.714Z,18.11
2017-04-14T02:30:57.530Z,13.03
2017-04-14T02:31:55.360Z,15.57
2017-04-14T02:32:53.343Z,18.22
2017-04-14T02:33:51.217Z,14.57
2017-04-14T02:34:49.133Z,21.35
2017-04-14T02:35:47.019Z,16.73
2017-04-14T02:36:44.921Z,15.18
2017-04-14T02:37:42.723Z,14.10
2017-04-14T02:38:40.521Z,18.62
2017-04-14T02:39:38.416Z,12.05
2017-04-14T02:40:36.275Z,14.13
2017-04-14T02:41:34.198Z,18.37
2017-04-14T02:42:32.028Z,15.52
2017-04-14T02:43:29.981Z,15.67
2017-04-14T02:44:27.977Z,15.00
2017-04-14T02:45:25.801Z,14.82
2017-04-14T02:46:23.616Z,20.27
2017-04-14T02:47:21.467Z,19.63
2017-04-14T02:48:19.416Z,16.73
2017-04-14T02:49:17.280Z,16.87
2017-04-14T02:50:15.231Z,16.15
2017-04-14T02:51:13.100Z,12.97
2017-04-14T02:52:10.948Z,15.43
2017-04-14T02:53:08.802Z,14.22
2017-04-14T02:54:06.684Z,17.28
2017-04-14T02:55:04.595Z,24.67
2017-04-14T02:56:02.400Z,16.47
2017-04-14T02:57:00.555Z,13.80
2017-04-14T02:57:58.431Z,16.42
2017-04-14T02:58:56.293Z,16.25
2017-04-14T02:59:54.169Z,15.58
2017-04-14T03:00:52.128Z,18.45
2017-04-14T03:01:49.985Z,15.12
2017-04-14T03:02:47.812Z,20.35
2017-04-14T03:03:45.648Z,22.10
2017-04-14T03:04:43.504Z,21.78
2017-04-14T03:05:41.307Z,20.25
2017-04-14T03:06:39.252Z,11.85
2017-04-14T03:07:37.116Z,19.60
2017-04-14T03:08:35.148Z,16.98
2017-04-14T03:09:33.011Z,26.95
2017-04-14T03:10:30.869Z,14.32
2017-04-14T03:11:28.787Z,20.60
2017-04-14T03:12:26.631Z,21.05
2017-04-14T03:13:24.460Z,18.27
2017-04-14T03:14:22.289Z,17.99
2017-04-14T03:15:20.173Z,15.42
2017-04-14T03:16:18.019Z,16.37
2017-04-14T03:17:15.935Z,17.07
2017-04-14T03:18:13.796Z,19.60
2017-04-14T03:19:11.687Z,19.95
2017-04-14T03:20:09.686Z,14.70
2017-04-14T03:21:07.529Z,20.43
2017-04-14T03:22:05.363Z,15.47
2017-04-14T03:23:03.218Z,16.24
2017-04-14T03:24:01.151Z,16.47
2017-04-14T03:24:59.009Z,18.65
2017-04-14T03:25:56.837Z,17.00
2017-04-14T03:26:54.800Z,15.32
2017-04-14T03:27:52.634Z,24.11
2017-04-14T03:28:50.474Z,17.82
2017-04-14T03:29:48.361Z,17.75
2017-04-14T03:30:46.269Z,20.31
2017-04-14T03:31:44.056Z,14.90
2017-04-14T03:32:42.035Z,18.72
2017-04-14T03:33:39.912Z,18.23
2017-04-14T03:34:37.829Z,21.42
2017-04-14T03:35:35.740Z,15.67
2017-04-14T03:36:33.588Z,21.40
2017-04-14T03:37:31.388Z,14.43
2017-04-14T03:38:29.230Z,16.02
2017-04-14T03:39:27.160Z,16.43
2017-04-14T03:40:24.998Z,20.32
2017-04-14T03:41:22.855Z,16.75
2017-04-14T03:42:20.829Z,21.60
2017-04-14T03:43:18.697Z,17.26
2017-04-14T03:44:16.578Z,13.28
2017-04-14T03:45:14.415Z,17.53
2017-04-14T03:46:12.392Z,18.68
2017-04-14T03:47:10.203Z,17.30
2017-04-14T03:48:08.015Z,23.62
2017-04-14T03:49:05.965Z,15.65
2017-04-14T03:50:03.875Z,15.08
2017-04-14T03:51:01.771Z,17.98
2017-04-14T03:51:59.600Z,15.62
2017-04-14T03:52:57.475Z,15.38
2017-04-14T03:53:55.340Z,17.30
2017-04-14T03:54:53.178Z,14.77
2017-04-14T03:55:51.126Z,17.82
2017-04-14T03:56:49.013Z,16.07
2017-04-14T03:57:46.941Z,18.93
2017-04-14T03:58:44.791Z,20.65
2017-04-14T03:59:42.673Z,15.73
2017-04-14T04:00:40.504Z,21.52
2017-04-14T04:01:38.352Z,16.74
2017-04-14T04:02:36.296Z,17.25
2017-04-14T04:03:34.133Z,16.25
2017-04-14T04:04:32.087Z,18.42
2017-04-14T04:05:29.920Z,17.73
2017-04-14T04:06:27.795Z,19.82
2017-04-14T04:07:25.692Z,16.78
2017-04-14T04:08:23.617Z,18.90
2017-04-14T04:09:21.492Z,22.70
2017-04-14T04:10:19.366Z,24.03
2017-04-14T04:11:17.320Z,19.03
2017-04-14T04:12:15.143Z,22.70
2017-04-14T04:13:13.060Z,20.18
2017-04-14T04:14:10.944Z,18.41
2017-04-14T04:15:08.833Z,20.58
2017-04-14T04:16:06.671Z,19.03
2017-04-14T04:17:04.561Z,20.15
2017-04-14T04:18:02.461Z,14.93
2017-04-14T04:19:00.289Z,19.88
2017-04-14T04:19:58.204Z,24.03
2017-04-14T04:20:56.088Z,20.37
2017-04-14T04:21:53.903Z,14.05
2017-04-14T04:22:51.875Z,21.25
2017-04-14T04:23:49.723Z,19.45
2017-04-14T04:24:47.655Z,23.93
2017-04-14T04:25:45.499Z,21.77
2017-04-14T04:26:43.365Z,21.11
2017-04-14T04:27:41.248Z,22.03
2017-04-14T04:28:39.227Z,23.93
2017-04-14T04:29:37.065Z,19.91
2017-04-14T04:30:34.907Z,18.61
2017-04-14T04:31:37.352Z,25.30
2017-04-14T04:33:41.536Z,22.30
2017-04-14T04:34:39.364Z,19.77
2017-04-14T04:35:37.191Z,24.80
2017-04-14T04:36:35.002Z,25.05
2017-04-14T04:37:33.013Z,29.56
2017-04-14T04:38:30.806Z,22.68
2017-04-14T04:39:28.742Z,27.55
2017-04-14T04:40:26.621Z,18.97
2017-04-14T04:41:24.514Z,21.75
2017-04-14T04:42:22.474Z,23.11
2017-04-14T04:43:20.339Z,20.18
2017-04-14T04:44:18.248Z,21.69
2017-04-14T04:45:16.113Z,25.13
2017-04-14T04:46:13.999Z,27.32
2017-04-14T04:47:11.921Z,20.92
2017-04-14T04:48:09.748Z,23.13
2017-04-14T04:49:07.616Z,26.07
2017-04-14T04:50:05.420Z,20.30
2017-04-14T04:51:03.469Z,18.42
2017-04-14T04:52:01.296Z,20.07
2017-04-14T04:52:59.214Z,20.50
2017-04-14T04:53:57.079Z,23.36
2017-04-14T04:54:54.956Z,22.13
2017-04-14T04:55:52.840Z,25.85
2017-04-14T04:56:50.688Z,20.03
2017-04-14T04:57:48.646Z,19.08
2017-04-14T04:58:46.492Z,22.93
2017-04-14T04:59:44.417Z,20.09
2017-04-14T05:00:42.271Z,32.08
2017-04-14T05:01:40.129Z,26.95
2017-04-14T05:02:38.003Z,21.30
2017-04-14T05:03:35.832Z,22.97
2017-04-14T05:04:35.455Z,23.77
2017-04-14T05:05:34.435Z,26.60
2017-04-14T05:06:32.348Z,24.71
2017-04-14T05:07:30.172Z,23.53
2017-04-14T05:08:28.124Z,26.52
2017-04-14T05:09:26.004Z,23.39
2017-04-14T05:10:23.948Z,26.62
2017-04-14T05:11:21.760Z,24.52
2017-04-14T05:12:19.761Z,33.37
2017-04-14T05:13:17.608Z,27.60
2017-04-14T05:14:15.438Z,24.17
2017-04-14T05:15:13.372Z,22.96
2017-04-14T05:16:11.285Z,27.42
2017-04-14T05:17:09.104Z,22.68
2017-04-14T05:18:06.977Z,24.93
2017-04-14T05:19:04.852Z,25.25
2017-04-14T05:20:02.689Z,27.23
2017-04-14T05:21:00.512Z,30.05
2017-04-14T05:21:58.479Z,25.13
2017-04-14T05:22:56.364Z,28.68
2017-04-14T05:23:54.378Z,26.55
2017-04-14T05:24:52.266Z,24.20
2017-04-14T05:25:50.144Z,26.33
2017-04-14T05:26:48.044Z,22.98
2017-04-14T05:27:45.893Z,22.07
2017-04-14T05:28:43.725Z,29.82
2017-04-14T05:29:41.584Z,26.49
2017-04-14T05:30:39.507Z,24.37
2017-04-14T05:31:37.336Z,25.12
2017-04-14T05:32:35.351Z,30.59
2017-04-14T05:33:33.185Z,24.83
2017-04-14T05:34:31.089Z,30.07
2017-04-14T05:35:29.020Z,29.75
2017-04-14T05:36:26.836Z,26.13
2017-04-14T05:37:24.789Z,29.66
2017-04-14T05:38:22.646Z,30.89
2017-04-14T05:39:20.568Z,25.33
2017-04-14T05:40:18.423Z,30.17
2017-04-14T05:41:16.296Z,28.98
2017-04-14T05:42:14.267Z,38.53
2017-04-14T05:43:12.142Z,33.20
2017-04-14T05:44:12.657Z,32.56
2017-04-14T05:45:10.547Z,33.87
2017-04-14T05:46:08.378Z,34.59
2017-04-14T05:47:06.195Z,34.28
2017-04-14T05:48:04.013Z,36.25
2017-04-14T05:49:01.875Z,34.82
2017-04-14T05:49:59.735Z,34.71
2017-04-14T05:50:57.585Z,35.68
2017-04-14T05:51:55.484Z,42.20
2017-04-14T05:52:53.335Z,38.77
2017-04-14T05:53:51.185Z,33.24
2017-04-14T05:54:48.999Z,41.44
2017-04-14T05:55:46.936Z,32.17
2017-04-14T05:56:44.851Z,41.35
2017-04-14T05:57:42.742Z,34.00
2017-04-14T05:58:40.575Z,38.93
2017-04-14T05:59:38.400Z,35.45
2017-04-14T06:00:36.390Z,33.59
2017-04-14T06:01:34.249Z,31.03
2017-04-14T06:02:32.320Z,39.04
2017-04-14T06:03:30.158Z,38.83
2017-04-14T06:04:28.022Z,39.81
2017-04-14T06:05:25.851Z,37.37
2017-04-14T06:06:23.729Z,26.37
2017-04-14T06:07:21.600Z,37.38
2017-04-14T06:08:19.396Z,40.56
2017-04-14T06:09:17.393Z,38.08
2017-04-14T06:10:15.262Z,36.40
2017-04-14T06:11:13.151Z,40.09
2017-04-14T06:12:11.021Z,41.49
2017-04-14T06:13:08.848Z,39.24
2017-04-14T06:14:06.741Z,42.29
2017-04-14T06:15:04.602Z,39.87
2017-04-14T06:16:02.559Z,35.50
2017-04-14T06:17:00.407Z,40.53
2017-04-14T06:17:58.249Z,32.14
2017-04-14T06:18:56.223Z,40.93
2017-04-14T06:19:54.055Z,30.54
2017-04-14T06:20:51.964Z,33.71
2017-04-14T06:21:49.795Z,37.26
2017-04-14T06:22:47.718Z,34.59
2017-04-14T06:23:45.584Z,33.57
2017-04-14T06:24:43.433Z,39.54
2017-04-14T06:25:41.369Z,34.46
2017-04-14T06:26:39.217Z,31.14
2017-04-14T06:27:37.097Z,35.03
2017-04-14T06:28:34.927Z,42.89
2017-04-14T06:29:32.890Z,37.60
2017-04-14T06:30:30.827Z,38.27
2017-04-14T06:31:28.631Z,36.60
2017-04-14T06:32:26.540Z,42.80
2017-04-14T06:33:24.334Z,37.23
2017-04-14T06:34:22.347Z,36.71
2017-04-14T06:35:20.288Z,38.19
2017-04-14T06:36:18.280Z,38.63
2017-04-14T06:37:16.108Z,35.41
2017-04-14T06:38:13.920Z,38.92
2017-04-14T06:39:11.812Z,37.21
2017-04-14T06:40:09.734Z,43.34
2017-04-14T06:41:07.568Z,34.10
2017-04-14T06:42:05.377Z,37.67
2017-04-14T06:43:03.188Z,33.11
2017-04-14T06:44:01.019Z,39.20
2017-04-14T06:44:58.851Z,35.47
2017-04-14T06:45:56.696Z,34.53
2017-04-14T06:46:54.553Z,39.19
2017-04-14T06:47:52.373Z,35.44
2017-04-14T06:48:50.220Z,33.96
2017-04-14T06:49:48.060Z,40.73
2017-04-14T06:50:45.988Z,37.64
2017-04-14T06:51:43.872Z,35.80
2017-04-14T06:52:41.719Z,39.60
2017-04-14T06:53:39.607Z,35.74
2017-04-14T06:54:37.452Z,37.77
2017-04-14T06:55:35.294Z,39.34
2017-04-14T06:56:33.176Z,36.13
2017-04-14T06:57:31.019Z,35.73
2017-04-14T06:58:28.931Z,33.49
2017-04-14T06:59:26.829Z,34.90
2017-04-14T07:00:24.765Z,38.70
2017-04-14T07:01:22.599Z,38.36
2017-04-14T07:02:20.447Z,41.30
2017-04-14T07:03:19.088Z,38.76
2017-04-14T07:04:16.972Z,34.40
2017-04-14T07:05:14.911Z,41.23
2017-04-14T07:06:12.772Z,44.39
2017-04-14T07:07:10.586Z,35.41
2017-04-14T07:08:08.461Z,37.39
2017-04-14T07:09:06.960Z,40.03
2017-04-14T07:10:05.009Z,37.77
2017-04-14T07:11:02.872Z,39.71
2017-04-14T07:12:00.700Z,36.30
2017-04-14T07:12:58.629Z,37.84
2017-04-14T07:13:56.433Z,37.51
2017-04-14T07:14:54.341Z,34.93
2017-04-14T07:15:52.187Z,37.47
2017-04-14T07:16:50.124Z,41.30
2017-04-14T07:17:47.977Z,32.73
2017-04-14T07:18:45.842Z,38.77
2017-04-14T07:19:43.763Z,44.69
2017-04-14T07:20:41.659Z,40.03
2017-04-14T07:21:39.481Z,38.94
2017-04-14T07:22:39.800Z,37.56
2017-04-14T07:23:37.650Z,41.01
2017-04-14T07:24:35.488Z,39.66
2017-04-14T07:25:33.344Z,36.36
2017-04-14T07:26:31.178Z,37.74
2017-04-14T07:27:28.960Z,41.96
2017-04-14T07:28:26.769Z,39.67
2017-04-14T07:29:24.727Z,37.56
2017-04-14T07:30:23.716Z,32.87
2017-04-14T07:31:21.614Z,40.36
2017-04-14T07:32:20.080Z,37.17
2017-04-14T07:33:17.919Z,41.36
2017-04-14T07:34:15.748Z,44.34
2017-04-14T07:35:13.612Z,40.31
2017-04-14T07:36:11.451Z,35.13
2017-04-14T07:37:09.280Z,33.73
2017-04-14T07:38:07.135Z,31.66
2017-04-14T07:39:05.801Z,41.20
2017-04-14T07:40:03.680Z,41.43
2017-04-14T07:41:01.481Z,41.01
2017-04-14T07:41:59.470Z,33.31
2017-04-14T07:42:57.760Z,37.13
2017-04-14T07:43:55.637Z,30.20
2017-04-14T07:44:53.488Z,31.97
2017-04-14T07:45:51.362Z,34.84
2017-04-14T07:46:49.141Z,34.44
2017-04-14T07:47:47.016Z,35.53
2017-04-14T07:48:44.881Z,35.71
2017-04-14T07:49:42.739Z,35.94
2017-04-14T07:50:40.584Z,44.27
2017-04-14T07:51:38.410Z,41.26
2017-04-14T07:52:36.244Z,38.27
2017-04-14T07:53:34.235Z,35.60
2017-04-14T07:54:32.107Z,40.24
2017-04-14T07:55:30.011Z,37.09
2017-04-14T07:56:28.115Z,37.73
2017-04-14T07:57:26.144Z,33.76
2017-04-14T07:58:24.361Z,42.23
2017-04-14T07:59:22.352Z,37.57
2017-04-14T08:00:20.320Z,33.56
2017-04-14T08:01:18.205Z,35.27
2017-04-14T08:02:16.058Z,38.94
2017-04-14T08:03:13.933Z,35.10
2017-04-14T08:04:11.752Z,40.81
2017-04-14T08:05:09.621Z,39.03
2017-04-14T08:06:07.479Z,46.23
2017-04-14T08:07:05.251Z,45.91
2017-04-14T08:08:03.149Z,38.17
2017-04-14T08:09:01.000Z,38.00
2017-04-14T08:09:58.856Z,36.16
2017-04-14T08:10:56.776Z,34.33
2017-04-14T08:11:54.723Z,35.30
2017-04-14T08:12:52.994Z,35.59
2017-04-14T08:13:50.821Z,39.31
2017-04-14T08:14:48.635Z,43.39
2017-04-14T08:15:46.503Z,38.67
2017-04-14T08:16:44.485Z,41.20
2017-04-14T08:17:42.294Z,46.59
2017-04-14T08:18:40.257Z,35.77
2017-04-14T08:19:38.259Z,35.36
2017-04-14T08:20:36.316Z,32.57
2017-04-14T08:21:34.136Z,34.20
2017-04-14T08:22:32.087Z,37.60
2017-04-14T08:23:29.972Z,36.40
2017-04-14T08:24:27.845Z,33.89
2017-04-14T08:25:25.728Z,37.37
2017-04-14T08:26:23.778Z,38.24
2017-04-14T08:27:21.620Z,35.94
2017-04-14T08:28:19.491Z,33.66
2017-04-14T08:29:17.576Z,37.34
2017-04-14T08:30:15.448Z,38.56
2017-04-14T08:31:13.338Z,31.77
2017-04-14T08:32:11.164Z,34.59
2017-04-14T08:33:09.091Z,34.97
2017-04-14T08:34:08.444Z,36.50
2017-04-14T08:35:06.305Z,39.01
2017-04-14T08:36:04.239Z,37.87
2017-04-14T08:37:02.131Z,37.21
2017-04-14T08:37:59.907Z,35.64
2017-04-14T08:38:57.752Z,32.59
2017-04-14T08:39:55.641Z,38.79
2017-04-14T08:40:53.606Z,37.13
2017-04-14T08:41:51.492Z,34.07
2017-04-14T08:42:49.353Z,33.37
2017-04-14T08:43:47.190Z,33.14
2017-04-14T08:44:45.027Z,34.94
2017-04-14T08:45:42.878Z,28.47
2017-04-14T08:46:40.736Z,37.77
2017-04-14T08:47:38.568Z,29.96
2017-04-14T08:48:36.472Z,29.30
2017-04-14T08:49:34.320Z,31.13
2017-04-14T08:50:32.185Z,37.56
2017-04-14T08:51:29.968Z,31.14
2017-04-14T08:52:27.825Z,33.39
2017-04-14T08:53:25.679Z,29.36
2017-04-14T08:54:23.488Z,32.54
2017-04-14T08:55:21.454Z,28.47
2017-04-14T08:56:19.313Z,28.89
2017-04-14T08:57:17.188Z,34.93
2017-04-14T08:58:15.069Z,31.29
2017-04-14T08:59:13.292Z,26.80
2017-04-14T09:00:11.255Z,30.91
2017-04-14T09:01:09.102Z,35.06
2017-04-14T09:02:07.004Z,30.06
2017-04-14T09:03:04.849Z,35.23
2017-04-14T09:04:02.840Z,28.80
2017-04-14T09:05:00.721Z,30.29
2017-04-14T09:05:58.551Z,29.40
2017-04-14T09:06:56.440Z,32.89
2017-04-14T09:07:54.304Z,31.64
2017-04-14T09:08:52.237Z,32.34
2017-04-14T09:09:50.053Z,29.46
2017-04-14T09:10:48.031Z,29.11
2017-04-14T09:11:46.109Z,33.81
2017-04-14T09:12:43.957Z,27.04
2017-04-14T09:13:43.876Z,34.06
2017-04-14T09:14:41.720Z,29.10
2017-04-14T09:15:39.563Z,31.54
2017-04-14T09:16:37.457Z,30.30
2017-04-14T09:17:35.317Z,32.43
2017-04-14T09:18:33.292Z,29.14
2017-04-14T09:19:31.528Z,32.59
2017-04-14T09:20:29.416Z,37.29
2017-04-14T09:21:27.572Z,29.70
2017-04-14T09:22:25.429Z,26.80
2017-04-14T09:23:23.356Z,31.43
2017-04-14T09:24:21.227Z,28.96
2017-04-14T09:25:19.174Z,29.50
2017-04-14T09:26:17.080Z,33.14
2017-04-14T09:27:14.961Z,31.44
2017-04-14T09:28:12.883Z,30.36
2017-04-14T09:29:10.762Z,35.99
2017-04-14T09:30:08.700Z,30.20
2017-04-14T09:31:06.564Z,30.01
2017-04-14T09:32:04.420Z,29.80
2017-04-14T09:33:02.348Z,31.76
2017-04-14T09:34:00.212Z,34.70
2017-04-14T09:34:58.404Z,37.83
2017-04-14T09:35:56.395Z,29.30
2017-04-14T09:36:54.415Z,26.66
2017-04-14T09:37:52.265Z,34.37
2017-04-14T09:38:50.186Z,32.06
2017-04-14T09:39:48.047Z,36.16
2017-04-14T09:40:45.947Z,28.06
2017-04-14T09:41:43.800Z,28.16
2017-04-14T09:42:41.696Z,28.29
2017-04-14T09:43:39.562Z,32.49
2017-04-14T09:44:37.517Z,29.57
2017-04-14T09:45:35.468Z,31.00
2017-04-14T09:46:34.254Z,30.14
2017-04-14T09:47:32.136Z,33.67
2017-04-14T09:48:30.082Z,29.71
2017-04-14T09:49:29.122Z,38.50
2017-04-14T09:50:28.237Z,31.73
2017-04-14T09:51:26.175Z,31.27
2017-04-14T09:52:24.087Z,35.66
2017-04-14T09:53:21.967Z,36.73
2017-04-14T09:54:19.820Z,32.07
2017-04-14T09:55:17.698Z,34.30
2017-04-14T09:56:15.605Z,32.49
2017-04-14T09:57:13.464Z,29.59
2017-04-14T09:58:11.304Z,33.79
2017-04-14T09:59:09.232Z,30.99
2017-04-14T10:00:07.160Z,31.30
2017-04-14T10:01:05.120Z,34.86
2017-04-14T10:02:03.015Z,31.66
2017-04-14T10:03:00.944Z,37.80
2017-04-14T10:03:58.849Z,31.69
2017-04-14T10:04:56.700Z,39.70
2017-04-14T10:05:54.595Z,31.53
2017-04-14T10:06:52.611Z,32.16
2017-04-14T10:07:50.470Z,35.44
2017-04-14T10:08:48.334Z,31.03
2017-04-14T10:09:46.168Z,29.39
2017-04-14T10:10:43.976Z,30.93
2017-04-14T10:11:42.644Z,42.09
2017-04-14T10:12:40.850Z,32.19
2017-04-14T10:13:38.845Z,31.87
2017-04-14T10:14:36.678Z,32.67
2017-04-14T10:15:35.976Z,34.99
2017-04-14T10:16:33.841Z,35.24
2017-04-14T10:17:31.836Z,35.96
2017-04-14T10:18:29.721Z,29.97
2017-04-14T10:19:27.532Z,34.73
2017-04-14T10:20:25.376Z,34.51
2017-04-14T10:21:23.244Z,35.54
2017-04-14T10:22:21.192Z,29.49
2017-04-14T10:23:19.031Z,32.03
2017-04-14T10:24:16.852Z,31.83
2017-04-14T10:25:14.741Z,34.76
2017-04-14T10:26:12.579Z,33.83
2017-04-14T10:27:10.404Z,31.34
2017-04-14T10:28:08.285Z,29.83
2017-04-14T10:29:06.115Z,34.51
2017-04-14T10:30:04.038Z,31.13
2017-04-14T10:31:02.191Z,33.80
2017-04-14T10:32:00.013Z,36.39
2017-04-14T10:32:57.868Z,36.24
2017-04-14T10:33:55.698Z,30.49
2017-04-14T10:34:53.561Z,31.60
2017-04-14T10:35:51.430Z,36.80
2017-04-14T10:36:49.301Z,31.31
2017-04-14T10:37:47.169Z,31.29
2017-04-14T10:38:45.026Z,32.96
2017-04-14T10:39:42.866Z,29.20
2017-04-14T10:40:41.716Z,29.04
2017-04-14T10:41:40.948Z,37.46
2017-04-14T10:42:38.765Z,34.43
2017-04-14T10:43:36.737Z,37.39
2017-04-14T10:44:34.612Z,37.04
2017-04-14T10:45:32.432Z,32.47
2017-04-14T10:46:31.068Z,32.76
2017-04-14T10:47:28.891Z,29.09
2017-04-14T10:48:26.809Z,35.53
2017-04-14T10:49:24.690Z,29.80
2017-04-14T10:50:22.577Z,33.06
2017-04-14T10:51:20.431Z,32.01
2017-04-14T10:52:18.243Z,29.69
2017-04-14T10:53:16.876Z,34.01
2017-04-14T10:54:15.452Z,29.43
2017-04-14T10:55:13.392Z,30.54
2017-04-14T10:56:11.588Z,30.46
2017-04-14T10:57:09.593Z,28.89
2017-04-14T10:58:07.527Z,35.20
2017-04-14T10:59:05.441Z,30.90
2017-04-14T11:00:03.401Z,31.91
2017-04-14T11:01:01.368Z,26.77
2017-04-14T11:01:59.296Z,29.74
2017-04-14T11:02:57.180Z,29.27
2017-04-14T11:03:55.013Z,27.99
2017-04-14T11:04:52.894Z,29.09
2017-04-14T11:05:50.745Z,25.76
2017-04-14T11:06:48.682Z,24.43
2017-04-14T11:07:46.529Z,26.54
2017-04-14T11:08:44.420Z,26.36
2017-04-14T11:09:42.236Z,22.24
2017-04-14T11:10:40.066Z,26.19
2017-04-14T11:11:37.980Z,25.56
2017-04-14T11:12:35.812Z,25.10
2017-04-14T11:13:33.651Z,25.96
2017-04-14T11:14:32.453Z,26.11
2017-04-14T11:15:30.614Z,26.09
2017-04-14T11:16:28.555Z,30.17
2017-04-14T11:17:26.478Z,25.31
2017-04-14T11:18:24.467Z,25.49
2017-04-14T11:19:22.380Z,29.40
2017-04-14T11:20:20.260Z,30.77
2017-04-14T11:21:18.202Z,27.14
2017-04-14T11:22:16.081Z,24.37
2017-04-14T11:23:13.938Z,26.34
2017-04-14T11:24:11.961Z,23.47
2017-04-14T11:25:09.807Z,22.40
2017-04-14T11:26:08.170Z,26.39
2017-04-14T11:27:06.046Z,23.63
2017-04-14T11:28:03.888Z,25.04
2017-04-14T11:29:01.753Z,27.86
2017-04-14T11:29:59.611Z,25.73
2017-04-14T11:30:57.495Z,25.51
2017-04-14T11:31:55.448Z,25.43
2017-04-14T11:32:53.409Z,23.81
2017-04-14T11:33:52.495Z,26.09
2017-04-14T11:34:50.356Z,25.21
2017-04-14T11:35:48.639Z,24.69
2017-04-14T11:36:48.084Z,23.33
2017-04-14T11:37:48.452Z,25.81
2017-04-14T11:38:48.279Z,23.96
2017-04-14T11:39:47.220Z,25.97
2017-04-14T11:40:45.068Z,28.87
2017-04-14T11:41:45.234Z,22.01
2017-04-14T11:42:43.737Z,27.16
2017-04-14T11:43:41.568Z,27.61
2017-04-14T11:44:39.386Z,21.27
2017-04-14T11:45:37.228Z,24.87
2017-04-14T11:46:35.119Z,32.10
2017-04-14T11:47:33.440Z,23.74
2017-04-14T11:48:31.297Z,27.59
2017-04-14T11:49:29.144Z,26.13
2017-04-14T11:50:27.013Z,22.47
2017-04-14T11:51:24.907Z,25.14
2017-04-14T11:52:22.812Z,26.23
2017-04-14T11:53:20.644Z,30.00
2017-04-14T11:54:18.668Z,23.81
2017-04-14T11:55:16.597Z,23.57
2017-04-14T11:56:14.821Z,26.06
2017-04-14T11:57:12.726Z,30.26
2017-04-14T11:58:10.677Z,24.60
2017-04-14T11:59:08.516Z,25.47
2017-04-14T12:00:06.402Z,28.11
2017-04-14T12:01:04.304Z,25.03
2017-04-14T12:02:04.397Z,26.33
2017-04-14T12:03:02.637Z,24.67
2017-04-14T12:04:00.476Z,28.37
2017-04-14T12:04:58.412Z,29.79
2017-04-14T12:05:56.325Z,27.83
2017-04-14T12:06:54.176Z,24.99
2017-04-14T12:07:54.048Z,27.06
2017-04-14T12:08:54.175Z,30.37
2017-04-14T12:09:52.138Z,22.77
2017-04-14T12:10:49.950Z,24.37
2017-04-14T12:11:47.879Z,31.67
2017-04-14T12:12:45.907Z,24.71
2017-04-14T12:13:43.769Z,26.86
2017-04-14T12:14:41.619Z,24.61
2017-04-14T12:15:40.829Z,33.64
2017-04-14T12:16:38.668Z,29.39
2017-04-14T12:17:36.553Z,28.71
2017-04-14T12:18:37.162Z,28.89
2017-04-14T12:19:35.111Z,28.33
2017-04-14T12:20:32.993Z,26.57
2017-04-14T12:21:30.870Z,27.66
2017-04-14T12:22:28.740Z,26.11
2017-04-14T12:23:26.612Z,26.61
2017-04-14T12:24:25.120Z,26.33
2017-04-14T12:25:23.818Z,24.90
2017-04-14T12:26:21.700Z,28.64
2017-04-14T12:27:19.625Z,28.71
2017-04-14T12:28:17.573Z,23.13